Terminal Aerodrome Forecast
Issued by NWS

Home | Current Version | Previous Version | Text Only | Print | Product List | Glossary On
Versions: 1 2 3 4 5 6 7 8 9 10 11 12 13 14 15 16 17 18 19 20 21 22 23 24
076
FTUS44 KTSA 251836 AAA
TAFRVS
TAF AMD
KRVS 251836Z 2519/2618 17015G21KT P6SM BKN021
     FM252100 20019G28KT P6SM SCT030
     FM260300 19012KT P6SM BKN250
     FM260600 17010KT P6SM OVC015=

USA.gov is the U.S. government's official web portal to all federal, state and local government web resources and services.